createdAt,value
2022-10-05T00:01:55.032Z,9.30
2022-10-05T00:04:28.913Z,9.40
2022-10-05T00:07:06.878Z,9.40
2022-10-05T00:09:34.506Z,9.40
2022-10-05T00:12:17.273Z,9.30
2022-10-05T00:14:46.561Z,9.30
2022-10-05T00:17:25.828Z,9.30
2022-10-05T00:19:54.138Z,9.50
2022-10-05T00:22:32.100Z,9.40
2022-10-05T00:25:01.840Z,9.40
2022-10-05T00:27:32.732Z,9.50
2022-10-05T00:30:03.143Z,9.50
2022-10-05T00:32:29.979Z,9.50
2022-10-05T00:34:57.546Z,9.50
2022-10-05T00:37:24.451Z,9.60
2022-10-05T00:39:51.279Z,9.60
2022-10-05T00:42:45.756Z,9.60
2022-10-05T00:45:29.631Z,9.70
2022-10-05T00:48:19.545Z,9.70
2022-10-05T00:51:08.703Z,9.70
2022-10-05T00:54:04.164Z,9.80
2022-10-05T00:56:34.051Z,9.80
2022-10-05T00:59:09.861Z,9.90
2022-10-05T01:02:01.688Z,10.00
2022-10-05T01:04:59.299Z,9.90
2022-10-05T01:07:56.985Z,9.90
2022-10-05T01:10:23.849Z,10.00
2022-10-05T01:13:07.012Z,10.00
2022-10-05T01:15:44.590Z,10.10
2022-10-05T01:18:30.348Z,10.10
2022-10-05T01:21:10.159Z,10.10
2022-10-05T01:23:52.600Z,10.20
2022-10-05T01:26:31.287Z,10.20
2022-10-05T01:29:20.886Z,10.20
2022-10-05T01:31:56.863Z,10.20
2022-10-05T01:34:29.782Z,10.20
2022-10-05T01:37:22.938Z,10.20
2022-10-05T01:40:11.158Z,10.30
2022-10-05T01:43:00.561Z,10.30
2022-10-05T01:45:33.193Z,10.30
2022-10-05T01:48:07.629Z,10.20
2022-10-05T01:51:08.526Z,10.30
2022-10-05T01:53:38.362Z,10.30
2022-10-05T01:56:20.058Z,10.30
2022-10-05T01:58:55.894Z,10.20
2022-10-05T02:01:42.555Z,10.30
2022-10-05T02:04:56.568Z,10.30
2022-10-05T02:07:17.322Z,10.30
2022-10-05T02:09:50.077Z,10.30
2022-10-05T02:12:20.592Z,10.30
2022-10-05T02:14:55.414Z,10.30
2022-10-05T02:17:30.916Z,10.30
2022-10-05T02:20:02.738Z,10.30
2022-10-05T02:22:34.204Z,10.40
2022-10-05T02:25:12.762Z,10.40
2022-10-05T02:27:51.737Z,10.50
2022-10-05T02:30:19.791Z,10.50
2022-10-05T02:33:09.291Z,10.40
2022-10-05T02:35:36.742Z,10.30
2022-10-05T02:38:18.632Z,10.20
2022-10-05T02:40:58.420Z,10.30
2022-10-05T02:43:31.243Z,10.40
2022-10-05T02:46:30.776Z,10.40
2022-10-05T02:49:19.193Z,10.50
2022-10-05T02:52:18.626Z,10.40
2022-10-05T02:54:50.372Z,10.40
2022-10-05T02:57:28.905Z,10.40
2022-10-05T03:00:10.237Z,10.40
2022-10-05T03:02:49.724Z,10.40
2022-10-05T03:05:46.693Z,10.30
2022-10-05T03:08:16.847Z,10.30
2022-10-05T03:11:03.395Z,10.30
2022-10-05T03:13:30.183Z,10.30
2022-10-05T03:16:43.857Z,10.30
2022-10-05T03:19:37.093Z,10.30
2022-10-05T03:22:13.318Z,10.30
2022-10-05T03:25:01.156Z,10.30
2022-10-05T03:27:41.427Z,10.20
2022-10-05T03:30:25.824Z,10.30
2022-10-05T03:33:06.891Z,10.30
2022-10-05T03:35:48.886Z,10.30
2022-10-05T03:38:23.481Z,10.20
2022-10-05T03:41:05.480Z,10.00
2022-10-05T03:43:58.482Z,10.00
2022-10-05T03:46:46.402Z,10.00
2022-10-05T03:49:35.105Z,10.00
2022-10-05T03:52:25.814Z,10.00
2022-10-05T03:55:00.103Z,10.10
2022-10-05T03:57:31.787Z,10.10
2022-10-05T04:00:07.369Z,10.00
2022-10-05T04:02:41.988Z,10.10
2022-10-05T04:05:24.068Z,10.20
2022-10-05T04:08:07.236Z,10.10
2022-10-05T04:10:48.421Z,10.00
2022-10-05T04:13:18.219Z,10.00
2022-10-05T04:15:56.272Z,10.00
2022-10-05T04:18:31.946Z,10.00
2022-10-05T04:21:08.654Z,9.90
2022-10-05T04:23:48.119Z,9.90
2022-10-05T04:26:20.413Z,10.00
2022-10-05T04:29:01.213Z,10.00
2022-10-05T04:31:48.774Z,10.00
2022-10-05T04:34:46.996Z,10.00
2022-10-05T04:37:31.878Z,10.00
2022-10-05T04:40:23.506Z,10.10
2022-10-05T04:43:15.535Z,10.00
2022-10-05T04:46:22.647Z,10.00
2022-10-05T04:49:27.183Z,9.90
2022-10-05T04:52:25.270Z,10.00
2022-10-05T04:55:39.680Z,10.10
2022-10-05T04:58:43.996Z,10.10
2022-10-05T05:01:29.987Z,9.90
2022-10-05T05:03:56.993Z,9.90
2022-10-05T05:07:01.314Z,9.90
2022-10-05T05:09:47.311Z,9.90
2022-10-05T05:12:34.930Z,9.90
2022-10-05T05:15:19.555Z,9.90
2022-10-05T05:17:46.647Z,9.80
2022-10-05T05:20:31.827Z,9.90
2022-10-05T05:23:39.145Z,9.90
2022-10-05T05:26:20.591Z,10.00
2022-10-05T05:29:13.649Z,9.90
2022-10-05T05:32:19.661Z,9.80
2022-10-05T05:35:02.897Z,9.80
2022-10-05T05:37:47.385Z,9.90
2022-10-05T05:40:28.291Z,9.90
2022-10-05T05:43:08.774Z,9.90
2022-10-05T05:45:58.817Z,9.90
2022-10-05T05:48:37.886Z,9.90
2022-10-05T05:51:08.858Z,9.90
2022-10-05T05:53:44.503Z,9.90
2022-10-05T05:56:14.500Z,9.80
2022-10-05T05:58:53.768Z,9.90
2022-10-05T06:01:34.075Z,9.90
2022-10-05T06:04:16.953Z,9.90
2022-10-05T06:06:49.179Z,9.90
2022-10-05T06:12:32.732Z,9.90
2022-10-05T06:15:20.355Z,9.90
2022-10-05T06:17:54.743Z,9.90
2022-10-05T06:20:30.779Z,10.00
2022-10-05T06:23:04.823Z,9.90
2022-10-05T06:25:41.050Z,9.90
2022-10-05T06:28:13.481Z,9.90
2022-10-05T06:30:46.534Z,10.00
2022-10-05T06:33:41.613Z,10.00
2022-10-05T06:36:33.499Z,10.00
2022-10-05T06:39:09.407Z,10.00
2022-10-05T06:42:13.706Z,10.00
2022-10-05T06:44:57.593Z,10.00
2022-10-05T06:47:41.882Z,10.10
2022-10-05T06:50:17.641Z,10.20
2022-10-05T06:53:19.951Z,10.10
2022-10-05T06:55:58.744Z,10.10
2022-10-05T06:58:31.365Z,10.20
2022-10-05T07:01:41.201Z,10.20
2022-10-05T07:04:55.267Z,10.20
2022-10-05T07:07:25.137Z,10.20
2022-10-05T07:10:17.428Z,10.20
2022-10-05T07:13:07.857Z,10.20
2022-10-05T07:15:49.435Z,10.10
2022-10-05T07:18:53.592Z,10.20
2022-10-05T07:21:39.398Z,10.10
2022-10-05T07:24:15.375Z,10.10
2022-10-05T07:27:01.217Z,10.10
2022-10-05T07:30:01.360Z,10.00
2022-10-05T07:32:28.228Z,10.10
2022-10-05T07:35:55.794Z,10.10
2022-10-05T07:38:33.355Z,10.10
2022-10-05T07:41:09.072Z,10.10
2022-10-05T07:44:02.370Z,10.10
2022-10-05T07:46:54.526Z,10.10
2022-10-05T07:49:41.517Z,10.10
2022-10-05T07:52:39.867Z,10.20
2022-10-05T07:55:27.176Z,10.30
2022-10-05T07:58:00.921Z,10.30
2022-10-05T08:00:47.327Z,10.30
2022-10-05T08:03:28.740Z,10.30
2022-10-05T08:05:57.666Z,10.30
2022-10-05T08:08:38.189Z,10.30
2022-10-05T08:11:31.423Z,10.40
2022-10-05T08:14:16.649Z,10.50
2022-10-05T08:16:46.634Z,10.50
2022-10-05T08:19:39.537Z,10.50
2022-10-05T08:22:13.993Z,10.60
2022-10-05T08:24:51.727Z,10.60
2022-10-05T08:27:36.568Z,10.60
2022-10-05T08:30:09.045Z,10.70
2022-10-05T08:33:00.510Z,10.70
2022-10-05T08:35:39.234Z,10.80
2022-10-05T08:38:16.798Z,10.80
2022-10-05T08:40:46.702Z,10.90
2022-10-05T08:43:30.635Z,10.80
2022-10-05T08:46:12.860Z,10.80
2022-10-05T08:49:02.360Z,10.70
2022-10-05T08:51:44.693Z,10.80
2022-10-05T08:54:33.778Z,10.90
2022-10-05T08:57:41.558Z,10.80
2022-10-05T09:00:21.674Z,10.70
2022-10-05T09:03:19.394Z,11.00
2022-10-05T09:05:49.416Z,11.10
2022-10-05T09:08:42.200Z,10.90
2022-10-05T09:11:25.015Z,11.00
2022-10-05T09:14:18.479Z,11.30
2022-10-05T09:16:57.159Z,11.40
2022-10-05T09:19:26.967Z,11.40
2022-10-05T09:22:05.500Z,11.30
2022-10-05T09:25:09.624Z,11.30
2022-10-05T09:27:49.384Z,11.50
2022-10-05T09:30:45.348Z,11.30
2022-10-05T09:33:33.644Z,11.50
2022-10-05T09:36:12.760Z,11.70
2022-10-05T09:39:00.944Z,11.80
2022-10-05T09:41:42.742Z,11.70
2022-10-05T09:44:46.060Z,11.60
2022-10-05T09:47:30.976Z,11.80
2022-10-05T09:50:19.540Z,11.80
2022-10-05T09:53:10.828Z,11.70
2022-10-05T09:56:00.336Z,11.90
2022-10-05T09:58:51.845Z,11.90
2022-10-05T10:01:34.656Z,12.10
2022-10-05T10:04:24.803Z,11.90
2022-10-05T10:07:21.831Z,12.00
2022-10-05T10:10:06.562Z,12.00
2022-10-05T10:13:00.041Z,12.00
2022-10-05T10:15:57.603Z,12.00
2022-10-05T10:19:03.239Z,12.20
2022-10-05T10:21:56.411Z,12.40
2022-10-05T10:24:41.944Z,12.30
2022-10-05T10:27:32.061Z,12.50
2022-10-05T10:30:21.857Z,12.70
2022-10-05T10:33:25.230Z,12.80
2022-10-05T10:36:06.081Z,12.60
2022-10-05T10:38:59.986Z,12.90
2022-10-05T10:41:51.632Z,13.00
2022-10-05T10:44:41.963Z,12.80
2022-10-05T10:47:27.610Z,13.10
2022-10-05T10:50:09.393Z,13.30
2022-10-05T10:53:02.844Z,13.50
2022-10-05T10:55:35.754Z,13.80
2022-10-05T10:58:39.974Z,13.70
2022-10-05T11:01:12.709Z,13.70
2022-10-05T11:04:05.690Z,14.00
2022-10-05T11:07:14.273Z,14.40
2022-10-05T11:10:02.135Z,14.70
2022-10-05T11:13:05.371Z,15.10
2022-10-05T11:15:53.454Z,15.30
2022-10-05T11:18:41.211Z,15.50
2022-10-05T11:21:23.308Z,15.50
2022-10-05T11:24:14.221Z,15.90
2022-10-05T11:27:00.150Z,16.30
2022-10-05T11:29:51.458Z,16.40
2022-10-05T11:32:58.029Z,16.60
2022-10-05T11:35:27.560Z,16.60
2022-10-05T11:38:33.499Z,16.80
2022-10-05T11:41:32.817Z,16.70
2022-10-05T11:44:46.938Z,17.00
2022-10-05T11:47:25.717Z,16.90
2022-10-05T11:50:43.160Z,16.90
2022-10-05T11:53:28.069Z,16.90
2022-10-05T11:56:10.750Z,17.00
2022-10-05T11:58:43.132Z,17.40
2022-10-05T12:01:34.600Z,17.60
2022-10-05T12:04:40.467Z,17.50
2022-10-05T12:07:31.599Z,17.50
2022-10-05T12:10:21.247Z,17.80
2022-10-05T12:13:17.041Z,17.30
2022-10-05T12:15:54.438Z,17.10
2022-10-05T12:18:31.596Z,17.50
2022-10-05T12:21:17.269Z,17.50
2022-10-05T12:23:53.560Z,17.50
2022-10-05T12:26:29.114Z,17.90
2022-10-05T12:29:39.776Z,18.30
2022-10-05T12:32:17.708Z,18.60
2022-10-05T12:35:11.359Z,19.00
2022-10-05T12:37:53.034Z,19.10
2022-10-05T12:40:45.174Z,19.10
2022-10-05T12:43:12.085Z,19.30
2022-10-05T12:45:49.240Z,19.50
2022-10-05T12:48:28.166Z,19.50
2022-10-05T12:51:24.120Z,19.80
2022-10-05T12:53:50.947Z,19.80
2022-10-05T12:56:53.402Z,19.70
2022-10-05T12:59:32.096Z,19.70
2022-10-05T13:02:17.301Z,19.30
2022-10-05T13:04:51.967Z,19.90
2022-10-05T13:08:02.843Z,20.40
2022-10-05T13:10:46.076Z,20.40
2022-10-05T13:13:47.937Z,20.60
2022-10-05T13:16:17.881Z,20.20
2022-10-05T13:18:59.904Z,20.50
2022-10-05T13:21:49.918Z,20.50
2022-10-05T13:24:52.838Z,20.70
2022-10-05T13:27:54.993Z,20.60
2022-10-05T13:30:22.534Z,20.70
2022-10-05T13:32:57.220Z,20.90
2022-10-05T13:36:12.004Z,20.80
2022-10-05T13:38:54.025Z,21.10
2022-10-05T13:41:55.940Z,21.00
2022-10-05T13:44:28.575Z,20.90
2022-10-05T13:47:19.261Z,21.30
2022-10-05T13:50:00.668Z,21.00
2022-10-05T13:52:56.050Z,20.90
2022-10-05T13:55:47.726Z,20.50
2022-10-05T13:58:35.509Z,20.40
2022-10-05T14:01:08.556Z,20.40
2022-10-05T14:03:37.916Z,20.50
2022-10-05T14:06:14.115Z,20.60
2022-10-05T14:08:52.073Z,20.80
2022-10-05T14:11:28.823Z,20.70
2022-10-05T14:14:14.404Z,20.80
2022-10-05T14:16:52.380Z,20.80
2022-10-05T14:19:23.690Z,20.90
2022-10-05T14:22:01.790Z,20.60
2022-10-05T14:24:43.539Z,20.50
2022-10-05T14:27:26.772Z,20.60
2022-10-05T14:30:01.704Z,20.70
2022-10-05T14:32:50.594Z,20.70
2022-10-05T14:35:22.337Z,20.30
2022-10-05T14:38:02.203Z,19.80
2022-10-05T14:40:31.065Z,19.90
2022-10-05T14:43:02.352Z,19.90
2022-10-05T14:45:33.948Z,19.70
2022-10-05T14:48:01.605Z,19.70
2022-10-05T14:50:30.896Z,19.50
2022-10-05T14:53:21.224Z,19.50
2022-10-05T14:56:24.991Z,19.50
2022-10-05T14:59:29.233Z,19.30
2022-10-05T15:02:35.361Z,19.30
2022-10-05T15:05:29.216Z,19.20
2022-10-05T15:08:02.241Z,19.20
2022-10-05T15:10:46.065Z,19.00
2022-10-05T15:13:16.985Z,18.90
2022-10-05T15:16:39.070Z,18.80
2022-10-05T15:19:26.227Z,18.80
2022-10-05T15:22:08.345Z,18.90
2022-10-05T15:24:52.490Z,18.80
2022-10-05T15:27:40.378Z,18.80
2022-10-05T15:30:18.322Z,18.70
2022-10-05T15:33:31.109Z,18.60
2022-10-05T15:36:04.448Z,18.60
2022-10-05T15:38:37.315Z,18.60
2022-10-05T15:41:12.470Z,18.60
2022-10-05T15:44:05.190Z,18.50
2022-10-05T15:46:36.241Z,18.50
2022-10-05T15:49:26.438Z,18.40
2022-10-05T15:52:30.453Z,18.30
2022-10-05T15:55:20.569Z,18.30
2022-10-05T15:58:07.833Z,18.20
2022-10-05T16:00:48.009Z,18.10
2022-10-05T16:03:17.828Z,18.10
2022-10-05T16:06:10.248Z,18.10
2022-10-05T16:09:07.834Z,18.00
2022-10-05T16:11:59.046Z,17.90
2022-10-05T16:14:44.429Z,17.70
2022-10-05T16:17:35.449Z,17.70
2022-10-05T16:20:03.328Z,17.60
2022-10-05T16:22:52.103Z,17.60
2022-10-05T16:25:49.910Z,17.50
2022-10-05T16:28:39.531Z,17.50
2022-10-05T16:31:18.778Z,17.40
2022-10-05T16:34:01.034Z,17.30
2022-10-05T16:36:52.271Z,17.20
2022-10-05T16:39:53.383Z,17.10
2022-10-05T16:43:02.163Z,17.00
2022-10-05T16:46:09.797Z,17.00
2022-10-05T16:48:36.948Z,16.90
2022-10-05T16:51:13.880Z,16.80
2022-10-05T16:53:42.649Z,16.80
2022-10-05T16:56:14.755Z,16.40
2022-10-05T16:59:06.586Z,16.30
2022-10-05T17:01:45.689Z,16.20
2022-10-05T17:04:43.253Z,16.20
2022-10-05T17:07:45.422Z,16.10
2022-10-05T17:10:46.238Z,16.20
2022-10-05T17:13:39.149Z,16.00
2022-10-05T17:16:21.349Z,16.20
2022-10-05T17:19:03.957Z,15.70
2022-10-05T17:21:45.931Z,15.60
2022-10-05T17:24:32.380Z,15.60
2022-10-05T17:27:12.706Z,15.60
2022-10-05T17:29:49.817Z,15.30
2022-10-05T17:32:16.727Z,15.30
2022-10-05T17:35:18.421Z,15.20
2022-10-05T17:38:17.209Z,15.30
2022-10-05T17:41:21.739Z,15.20
2022-10-05T17:44:24.393Z,15.30
2022-10-05T17:46:59.690Z,15.30
2022-10-05T17:49:26.841Z,15.20
2022-10-05T17:52:12.108Z,14.90
2022-10-05T17:55:20.473Z,14.90
2022-10-05T17:57:47.316Z,14.90
2022-10-05T18:00:31.730Z,14.40
2022-10-05T18:02:58.686Z,14.50
2022-10-05T18:05:28.178Z,14.50
2022-10-05T18:08:13.282Z,14.30
2022-10-05T18:11:05.795Z,14.50
2022-10-05T18:13:43.808Z,14.50
2022-10-05T18:16:10.869Z,14.40
2022-10-05T18:18:43.740Z,14.30
2022-10-05T18:21:13.641Z,14.10
2022-10-05T18:23:51.890Z,14.10
2022-10-05T18:26:53.570Z,13.60
2022-10-05T18:30:02.880Z,13.80
2022-10-05T18:32:46.036Z,13.80
2022-10-05T18:35:24.395Z,13.90
2022-10-05T18:38:08.777Z,14.00
2022-10-05T18:40:50.565Z,14.00
2022-10-05T18:43:18.270Z,14.00
2022-10-05T18:46:30.167Z,13.80
2022-10-05T18:49:24.826Z,13.80
2022-10-05T18:52:21.647Z,13.80
2022-10-05T18:54:59.545Z,13.70
2022-10-05T18:57:29.242Z,13.60
2022-10-05T19:00:21.384Z,13.70
2022-10-05T19:02:51.104Z,13.70
2022-10-05T19:05:46.436Z,13.50
2022-10-05T19:08:34.831Z,13.60
2022-10-05T19:11:19.046Z,13.30
2022-10-05T19:14:09.124Z,13.50
2022-10-05T19:17:07.896Z,13.30
2022-10-05T19:19:52.795Z,13.50
2022-10-05T19:22:27.760Z,13.40
2022-10-05T19:25:32.032Z,13.50
2022-10-05T19:28:23.413Z,13.60
2022-10-05T19:30:59.466Z,13.70
2022-10-05T19:34:01.549Z,13.70
2022-10-05T19:37:14.029Z,13.50
2022-10-05T19:39:49.930Z,13.30
2022-10-05T19:42:36.568Z,13.40
2022-10-05T19:45:12.752Z,13.50
2022-10-05T19:47:48.510Z,13.20
2022-10-05T19:50:24.171Z,13.30
2022-10-05T19:53:04.088Z,13.40
2022-10-05T19:55:43.754Z,13.00
2022-10-05T19:58:29.250Z,13.00
2022-10-05T20:01:01.998Z,13.00
2022-10-05T20:03:31.073Z,12.80
2022-10-05T20:06:00.120Z,12.70
2022-10-05T20:08:36.171Z,12.70
2022-10-05T20:11:14.835Z,12.70
2022-10-05T20:13:44.729Z,12.80
2022-10-05T20:16:36.257Z,12.80
2022-10-05T20:19:35.822Z,12.60
2022-10-05T20:22:39.601Z,12.40
2022-10-05T20:25:18.577Z,12.20
2022-10-05T20:27:45.683Z,12.40
2022-10-05T20:30:15.870Z,12.30
2022-10-05T20:32:43.694Z,12.40
2022-10-05T20:35:11.305Z,12.40
2022-10-05T20:37:38.361Z,12.40
2022-10-05T20:40:05.966Z,12.30
2022-10-05T20:42:32.819Z,12.60
2022-10-05T20:44:59.758Z,12.20
2022-10-05T20:47:27.002Z,12.10
2022-10-05T20:49:54.517Z,12.10
2022-10-05T20:52:23.116Z,12.40
2022-10-05T20:54:53.660Z,12.20
2022-10-05T20:57:21.241Z,12.30
2022-10-05T20:59:48.083Z,12.30
2022-10-05T21:02:14.909Z,12.10
2022-10-05T21:04:46.674Z,12.10
2022-10-05T21:07:15.358Z,12.30
2022-10-05T21:09:43.764Z,12.30
2022-10-05T21:12:11.211Z,12.50
2022-10-05T21:14:38.214Z,12.60
2022-10-05T21:17:06.783Z,12.40
2022-10-05T21:19:38.307Z,12.10
2022-10-05T21:22:09.814Z,12.00
2022-10-05T21:24:41.035Z,12.00
2022-10-05T21:27:09.595Z,12.30
2022-10-05T21:29:37.146Z,12.10
2022-10-05T21:32:08.475Z,12.20
2022-10-05T21:34:35.669Z,12.10
2022-10-05T21:37:02.607Z,12.10
2022-10-05T21:39:29.504Z,12.30
2022-10-05T21:41:56.482Z,12.20
2022-10-05T21:44:23.291Z,12.30
2022-10-05T21:46:50.462Z,12.30
2022-10-05T21:49:19.762Z,12.30
2022-10-05T21:51:47.847Z,12.10
2022-10-05T21:54:18.124Z,12.20
2022-10-05T21:56:50.187Z,12.10
2022-10-05T21:59:20.170Z,12.10
2022-10-05T22:01:46.985Z,12.10
2022-10-05T22:04:15.038Z,12.10
2022-10-05T22:06:41.969Z,12.20
2022-10-05T22:09:08.883Z,12.00
2022-10-05T22:11:35.752Z,11.90
2022-10-05T22:14:02.785Z,12.00
2022-10-05T22:16:33.064Z,11.90
2022-10-05T22:19:10.768Z,11.90
2022-10-05T22:21:41.563Z,11.80
2022-10-05T22:24:09.364Z,11.70
2022-10-05T22:26:36.376Z,11.70
2022-10-05T22:29:03.809Z,11.70
2022-10-05T22:31:30.784Z,11.90
2022-10-05T22:33:57.805Z,11.80
2022-10-05T22:36:24.854Z,11.70
2022-10-05T22:38:51.804Z,11.50
2022-10-05T22:41:18.995Z,11.70
2022-10-05T22:43:49.931Z,11.70
2022-10-05T22:46:17.321Z,11.70
2022-10-05T22:48:44.392Z,11.80
2022-10-05T22:51:11.278Z,11.80
2022-10-05T22:53:38.381Z,11.80
2022-10-05T22:56:10.821Z,11.70
2022-10-05T22:58:37.798Z,11.80
2022-10-05T23:01:07.321Z,11.70
2022-10-05T23:03:34.478Z,11.80
2022-10-05T23:06:12.718Z,11.80
2022-10-05T23:08:40.925Z,11.80
2022-10-05T23:11:16.740Z,11.80
2022-10-05T23:13:44.412Z,11.80
2022-10-05T23:16:12.903Z,11.70
2022-10-05T23:18:40.922Z,11.60
2022-10-05T23:21:09.829Z,11.60
2022-10-05T23:23:37.955Z,11.50
2022-10-05T23:26:07.293Z,11.60
2022-10-05T23:28:34.669Z,11.60
2022-10-05T23:31:03.933Z,11.60
2022-10-05T23:33:31.370Z,11.60
2022-10-05T23:35:59.203Z,11.60
2022-10-05T23:38:26.447Z,11.60
2022-10-05T23:40:53.650Z,11.60
2022-10-05T23:43:20.552Z,11.30
2022-10-05T23:45:47.971Z,11.40
2022-10-05T23:48:15.060Z,11.30
2022-10-05T23:50:45.343Z,11.40
2022-10-05T23:53:12.670Z,11.50
2022-10-05T23:55:39.523Z,11.40
2022-10-05T23:58:06.445Z,11.20
